Time;durP1;ratioP1;P1;durP2;ratioP2;P2;SDS_P1;SDS_P2;PMS_P1;PMS_P2;Temp;Humidity;BMP_temperature;BMP_pressure;BME280_temperature;BME280_humidity;BME280_pressure;Samples;Min_cycle;Max_cycle;Signal;HPM_P1;HPM_P2
2022/10/16 00:00:38;;;;;;;5.00;1.33;;;12.30;99.90;;;;;;5079008;28;20032;-77
2022/10/16 00:03:04;;;;;;;3.40;1.33;;;12.30;99.90;;;;;;5086312;28;20038;-76
2022/10/16 00:05:29;;;;;;;5.35;1.52;;;12.30;99.90;;;;;;5079841;28;20036;-76
2022/10/16 00:07:55;;;;;;;3.47;1.40;;;12.30;99.90;;;;;;5076655;28;20025;-76
2022/10/16 00:10:21;;;;;;;4.50;1.25;;;12.20;99.90;;;;;;5076142;28;20116;-76
2022/10/16 00:12:47;;;;;;;5.18;1.27;;;12.20;99.90;;;;;;5087278;28;20491;-76
2022/10/16 00:15:12;;;;;;;6.72;1.42;;;12.20;99.90;;;;;;5083394;28;20480;-76
2022/10/16 00:17:38;;;;;;;6.72;1.67;;;12.20;99.90;;;;;;5076772;28;20433;-76
2022/10/16 00:20:04;;;;;;;5.38;1.50;;;12.20;99.90;;;;;;5085726;28;20032;-76
2022/10/16 00:22:30;;;;;;;4.43;1.23;;;12.20;99.90;;;;;;5084554;28;20166;-76
2022/10/16 00:24:55;;;;;;;6.90;1.65;;;12.10;99.90;;;;;;5075398;28;20120;-76
2022/10/16 00:27:21;;;;;;;7.85;1.77;;;12.10;99.90;;;;;;5085172;28;20425;-77
2022/10/16 00:29:51;;;;;;;4.45;1.70;;;12.10;99.90;;;;;;5072567;28;20131;-76
2022/10/16 00:32:17;;;;;;;6.30;1.50;;;12.10;99.90;;;;;;5084884;28;20036;-76
2022/10/16 00:34:43;;;;;;;6.63;1.95;;;12.10;99.90;;;;;;5083340;28;20498;-76
2022/10/16 00:37:09;;;;;;;4.55;1.60;;;12.10;99.90;;;;;;5072109;28;20017;-76
2022/10/16 00:39:34;;;;;;;5.78;1.92;;;12.10;99.90;;;;;;5070828;28;20028;-76
2022/10/16 00:42:00;;;;;;;3.85;2.22;;;12.00;99.90;;;;;;5075582;28;20028;-76
2022/10/16 00:44:57;;;;;;;4.30;1.80;;;12.00;99.90;;;;;;5060656;28;20124;-76
2022/10/16 00:47:35;;;;;;;6.97;2.30;;;12.00;99.90;;;;;;5066660;28;20028;-76
2022/10/16 00:50:29;;;;;;;5.35;2.72;;;12.00;99.90;;;;;;5066001;28;20127;-77
2022/10/16 00:52:55;;;;;;;4.90;2.00;;;12.00;99.90;;;;;;5067473;28;20032;-76
2022/10/16 00:55:21;;;;;;;7.95;2.45;;;11.90;99.90;;;;;;5062515;28;20098;-76
2022/10/16 00:57:48;;;;;;;7.68;2.38;;;11.90;99.90;;;;;;5061424;28;20025;-76
2022/10/16 01:00:20;;;;;;;6.10;2.13;;;11.90;99.90;;;;;;5060244;28;20108;-77
2022/10/16 01:03:01;;;;;;;4.38;2.25;;;11.90;99.90;;;;;;5070475;28;20033;-76
2022/10/16 01:05:38;;;;;;;6.72;2.33;;;11.90;99.90;;;;;;5061130;28;20025;-76
2022/10/16 01:08:18;;;;;;;7.25;3.20;;;11.90;99.90;;;;;;5058337;28;20039;-76
2022/10/16 01:11:15;;;;;;;6.32;2.30;;;11.90;99.90;;;;;;5064197;28;20037;-76
2022/10/16 01:13:45;;;;;;;7.43;2.47;;;11.90;99.90;;;;;;5057064;28;20428;-76
2022/10/16 01:16:21;;;;;;;11.55;2.55;;;11.90;99.90;;;;;;5058530;28;20048;-76
2022/10/16 01:18:56;;;;;;;7.18;2.63;;;12.00;99.90;;;;;;5067418;28;20012;-76
2022/10/16 01:21:31;;;;;;;7.78;2.30;;;12.00;99.90;;;;;;5069728;28;20426;-76
2022/10/16 01:24:17;;;;;;;6.03;2.35;;;12.10;99.90;;;;;;5068182;28;20353;-76
2022/10/16 01:26:57;;;;;;;5.35;2.47;;;12.20;99.90;;;;;;5061716;28;20499;-76
2022/10/16 01:29:36;;;;;;;5.97;2.40;;;12.20;99.90;;;;;;5070177;28;20045;-76
2022/10/16 01:32:27;;;;;;;4.15;1.98;;;12.20;99.90;;;;;;5061886;28;20032;-76
2022/10/16 01:34:59;;;;;;;5.65;2.65;;;12.20;99.90;;;;;;5055935;28;20036;-76
2022/10/16 01:37:54;;;;;;;5.07;2.17;;;12.20;99.90;;;;;;5069089;28;20027;-76
2022/10/16 01:40:22;;;;;;;3.33;1.92;;;12.20;99.90;;;;;;5061983;28;20029;-76
2022/10/16 01:43:10;;;;;;;8.43;1.73;;;12.20;99.90;;;;;;5058319;28;20024;-76
2022/10/16 01:45:36;;;;;;;4.50;2.25;;;12.20;99.90;;;;;;5058692;28;20480;-76
2022/10/16 01:48:07;;;;;;;7.20;2.03;;;12.30;99.90;;;;;;5058581;28;20059;-76
2022/10/16 01:50:38;;;;;;;4.80;1.98;;;12.30;99.90;;;;;;5062675;28;20043;-76
2022/10/16 01:53:07;;;;;;;4.40;1.70;;;12.30;99.90;;;;;;5064053;28;20151;-76
2022/10/16 01:55:37;;;;;;;5.20;1.77;;;12.30;99.90;;;;;;5068377;28;20020;-77
2022/10/16 01:58:06;;;;;;;4.20;1.63;;;12.30;99.90;;;;;;5061847;28;20040;-76
2022/10/16 02:00:32;;;;;;;3.05;1.48;;;12.30;99.90;;;;;;5057138;28;20503;-76
2022/10/16 02:03:01;;;;;;;5.57;2.28;;;12.30;99.90;;;;;;5064789;28;20032;-76
2022/10/16 02:05:46;;;;;;;5.15;1.67;;;12.40;99.90;;;;;;5059914;28;20053;-76
2022/10/16 02:08:12;;;;;;;2.85;1.45;;;12.40;99.90;;;;;;5065090;28;20509;-76
2022/10/16 02:10:38;;;;;;;4.13;1.52;;;12.40;99.90;;;;;;5064648;28;20071;-76
2022/10/16 02:13:10;;;;;;;4.50;1.65;;;12.50;99.90;;;;;;5068465;28;20089;-76
2022/10/16 02:15:35;;;;;;;5.13;1.50;;;12.50;99.90;;;;;;5066916;28;20392;-76
2022/10/16 02:18:03;;;;;;;5.30;1.55;;;12.50;99.90;;;;;;5070765;28;20032;-77
2022/10/16 02:20:34;;;;;;;5.57;1.48;;;12.50;99.90;;;;;;5069730;28;20036;-76
2022/10/16 02:23:02;;;;;;;5.20;1.80;;;12.50;99.90;;;;;;5070890;28;20071;-76
2022/10/16 02:25:34;;;;;;;4.05;1.40;;;12.50;99.90;;;;;;5064963;28;20083;-76
2022/10/16 02:28:09;;;;;;;3.63;1.80;;;12.50;99.90;;;;;;5065605;28;20572;-76
2022/10/16 02:30:50;;;;;;;4.68;1.42;;;12.50;99.90;;;;;;5064967;28;20407;-76
2022/10/16 02:33:17;;;;;;;9.05;2.08;;;12.60;99.90;;;;;;5065378;28;20021;-76
2022/10/16 02:35:46;;;;;;;4.32;1.48;;;12.50;99.90;;;;;;5063701;28;20383;-77
2022/10/16 02:38:13;;;;;;;4.15;1.30;;;12.50;99.90;;;;;;5057449;28;20111;-76
2022/10/16 02:40:39;;;;;;;2.83;1.50;;;12.50;99.90;;;;;;5064716;28;20427;-76
2022/10/16 02:43:06;;;;;;;4.25;1.88;;;12.50;99.90;;;;;;5070386;28;20035;-76
2022/10/16 02:45:32;;;;;;;5.75;1.50;;;12.50;99.90;;;;;;5062484;28;20028;-76
2022/10/16 02:47:57;;;;;;;5.65;1.30;;;12.40;99.90;;;;;;5068476;28;20029;-76
2022/10/16 02:50:24;;;;;;;3.78;1.50;;;12.40;99.90;;;;;;5060248;28;20117;-76
2022/10/16 02:52:50;;;;;;;4.50;1.35;;;12.40;99.90;;;;;;5068823;28;20024;-75
2022/10/16 02:55:16;;;;;;;4.53;1.60;;;12.30;99.90;;;;;;5066690;28;20042;-75
2022/10/16 02:57:41;;;;;;;4.80;1.60;;;12.30;99.90;;;;;;5064083;28;20024;-75
2022/10/16 03:00:14;;;;;;;2.83;0.98;;;12.30;99.90;;;;;;5070703;28;20106;-75
2022/10/16 03:02:40;;;;;;;6.88;1.67;;;12.30;99.90;;;;;;5065214;28;20100;-75
2022/10/16 03:05:06;;;;;;;2.72;1.25;;;12.20;99.90;;;;;;5066189;28;20107;-75
2022/10/16 03:07:32;;;;;;;3.13;1.27;;;12.20;99.90;;;;;;5054164;28;20021;-75
2022/10/16 03:10:00;;;;;;;2.97;1.10;;;12.20;99.90;;;;;;5069720;28;20552;-76
2022/10/16 03:12:28;;;;;;;4.55;1.42;;;12.10;99.90;;;;;;5061630;28;20116;-75
2022/10/16 03:14:55;;;;;;;5.57;1.65;;;12.20;99.90;;;;;;5058551;28;20025;-75
2022/10/16 03:17:20;;;;;;;3.15;1.05;;;12.10;99.90;;;;;;5062943;28;20077;-75
2022/10/16 03:19:46;;;;;;;2.72;1.45;;;12.10;99.90;;;;;;5068814;28;20020;-75
2022/10/16 03:22:11;;;;;;;4.22;1.50;;;12.10;99.90;;;;;;5069080;28;20039;-75
2022/10/16 03:24:37;;;;;;;5.35;1.58;;;12.10;99.90;;;;;;5069004;28;20096;-75
2022/10/16 03:27:02;;;;;;;4.25;1.65;;;12.10;99.90;;;;;;5069960;28;20032;-75
2022/10/16 03:29:29;;;;;;;5.20;1.77;;;12.20;99.90;;;;;;5068176;28;20064;-75
2022/10/16 03:31:55;;;;;;;2.78;1.23;;;12.10;99.90;;;;;;5065950;28;20025;-75
2022/10/16 03:34:20;;;;;;;2.45;1.33;;;12.20;99.90;;;;;;5061027;28;20488;-75
2022/10/16 03:36:46;;;;;;;2.65;1.35;;;12.10;99.90;;;;;;5059615;28;20114;-75
2022/10/16 03:39:11;;;;;;;3.92;1.63;;;12.10;99.90;;;;;;5063565;28;20029;-75
2022/10/16 03:41:37;;;;;;;3.80;1.60;;;12.20;99.90;;;;;;5060181;28;20021;-75
2022/10/16 03:44:03;;;;;;;4.22;2.25;;;12.10;99.90;;;;;;5064912;28;20024;-75
2022/10/16 03:46:29;;;;;;;4.68;1.60;;;12.20;99.90;;;;;;5069968;28;20485;-75
2022/10/16 03:48:54;;;;;;;4.47;1.80;;;12.10;99.90;;;;;;5054482;28;20101;-75
2022/10/16 03:51:20;;;;;;;3.58;1.50;;;12.10;99.90;;;;;;5059702;28;20587;-77
2022/10/16 03:53:45;;;;;;;3.95;2.00;;;12.20;99.90;;;;;;5058569;28;20024;-75
2022/10/16 03:56:11;;;;;;;3.63;1.10;;;12.20;99.90;;;;;;5066171;28;20028;-75
2022/10/16 03:58:36;;;;;;;5.13;1.20;;;12.10;99.90;;;;;;5069213;28;20032;-76
2022/10/16 04:01:02;;;;;;;5.75;1.65;;;12.10;99.90;;;;;;5069551;28;20515;-76
2022/10/16 04:03:28;;;;;;;4.15;1.38;;;12.10;99.90;;;;;;5067862;28;20037;-76
2022/10/16 04:05:53;;;;;;;3.83;1.30;;;12.10;99.90;;;;;;5060509;28;20028;-75
2022/10/16 04:08:19;;;;;;;4.07;1.38;;;12.10;99.90;;;;;;5057932;28;20064;-75
2022/10/16 04:10:45;;;;;;;4.18;1.60;;;12.10;99.90;;;;;;5058581;28;20045;-75
2022/10/16 04:13:11;;;;;;;4.13;1.52;;;12.10;99.90;;;;;;5061126;28;20040;-75
2022/10/16 04:15:37;;;;;;;3.35;1.55;;;12.00;99.90;;;;;;5068831;28;20074;-75
2022/10/16 04:18:03;;;;;;;7.38;1.55;;;12.00;99.90;;;;;;5066470;28;20023;-76
2022/10/16 04:20:28;;;;;;;2.30;1.20;;;12.00;99.90;;;;;;5060024;28;20033;-75
2022/10/16 04:22:54;;;;;;;2.45;1.23;;;12.00;99.90;;;;;;5067897;28;20048;-76
2022/10/16 04:25:19;;;;;;;3.90;1.55;;;12.00;99.90;;;;;;5067255;28;20804;-75
2022/10/16 04:27:45;;;;;;;3.63;1.58;;;12.00;99.90;;;;;;5069320;28;20035;-75
2022/10/16 04:30:10;;;;;;;2.75;1.30;;;12.00;99.90;;;;;;5069982;28;20439;-75
2022/10/16 04:32:36;;;;;;;3.90;1.52;;;12.00;99.90;;;;;;5062104;28;20017;-74
2022/10/16 04:35:02;;;;;;;3.08;1.40;;;12.00;99.90;;;;;;5063035;28;20025;-74
2022/10/16 04:37:28;;;;;;;5.40;1.42;;;11.90;99.90;;;;;;5066427;28;20032;-75
2022/10/16 04:39:54;;;;;;;7.28;1.52;;;11.90;99.90;;;;;;5066906;28;20028;-76
2022/10/16 04:42:20;;;;;;;2.35;1.40;;;11.90;99.90;;;;;;5064543;28;20101;-76
2022/10/16 04:44:46;;;;;;;4.82;1.50;;;11.90;99.90;;;;;;5068953;28;20024;-76
2022/10/16 04:47:11;;;;;;;5.28;1.70;;;11.90;99.90;;;;;;5064412;28;20383;-76
2022/10/16 04:49:37;;;;;;;3.72;1.67;;;11.90;99.90;;;;;;5059664;28;20039;-76
2022/10/16 04:52:03;;;;;;;9.73;2.00;;;11.90;99.90;;;;;;5067646;28;20028;-76
2022/10/16 04:54:28;;;;;;;6.32;1.35;;;11.80;99.90;;;;;;5063017;28;20029;-76
2022/10/16 04:56:54;;;;;;;4.63;1.52;;;11.80;99.90;;;;;;5053897;28;20042;-76
2022/10/16 04:59:21;;;;;;;5.57;1.58;;;11.80;99.90;;;;;;5055547;28;20377;-76
2022/10/16 05:01:46;;;;;;;3.60;1.45;;;11.80;99.90;;;;;;5056696;28;20044;-76
2022/10/16 05:04:12;;;;;;;3.80;1.27;;;11.80;99.90;;;;;;5065083;28;20031;-77
2022/10/16 05:06:38;;;;;;;3.00;1.17;;;11.80;99.90;;;;;;5060109;28;20037;-76
2022/10/16 05:09:04;;;;;;;3.50;1.55;;;11.70;99.90;;;;;;5059290;28;20056;-76
2022/10/16 05:11:30;;;;;;;3.58;1.40;;;11.70;99.90;;;;;;5063098;28;20512;-76
2022/10/16 05:13:56;;;;;;;3.75;1.63;;;11.70;99.90;;;;;;5071489;28;20024;-76
2022/10/16 05:16:21;;;;;;;3.88;1.33;;;11.70;99.90;;;;;;5071615;28;20514;-76
2022/10/16 05:18:47;;;;;;;2.33;1.00;;;11.60;99.90;;;;;;5067311;28;20028;-76
2022/10/16 05:21:12;;;;;;;9.68;1.80;;;11.70;99.90;;;;;;5056802;28;20067;-76
2022/10/16 05:23:38;;;;;;;4.55;1.52;;;11.60;99.90;;;;;;5067121;28;20055;-76
2022/10/16 05:26:03;;;;;;;3.92;1.75;;;11.60;99.90;;;;;;5067386;28;20025;-76
2022/10/16 05:28:30;;;;;;;3.92;1.38;;;11.60;99.90;;;;;;5065407;28;20033;-76
2022/10/16 05:30:57;;;;;;;3.83;1.90;;;11.60;99.90;;;;;;5056427;28;20561;-76
2022/10/16 05:33:25;;;;;;;5.03;2.08;;;11.50;99.90;;;;;;5064750;28;20345;-76
2022/10/16 05:35:51;;;;;;;3.75;1.30;;;11.50;99.90;;;;;;5066080;28;20047;-75
2022/10/16 05:38:17;;;;;;;4.40;1.70;;;11.50;99.90;;;;;;5064423;28;20032;-76
2022/10/16 05:40:43;;;;;;;3.92;1.52;;;11.50;99.90;;;;;;5071848;28;20404;-75
2022/10/16 05:43:09;;;;;;;3.80;1.52;;;11.40;99.90;;;;;;5068104;28;20431;-74
2022/10/16 05:45:34;;;;;;;6.15;1.77;;;11.40;99.90;;;;;;5061941;28;20037;-76
2022/10/16 05:48:00;;;;;;;4.43;1.58;;;11.40;99.90;;;;;;5056845;28;20047;-76
2022/10/16 05:50:27;;;;;;;4.28;1.77;;;11.40;99.90;;;;;;5054338;28;20036;-76
2022/10/16 05:52:52;;;;;;;4.55;1.70;;;11.30;99.90;;;;;;5063633;28;20016;-76
2022/10/16 05:55:18;;;;;;;3.97;1.90;;;11.30;99.90;;;;;;5059011;28;20059;-76
2022/10/16 05:57:43;;;;;;;4.22;1.90;;;11.30;99.90;;;;;;5063084;28;20197;-76
2022/10/16 06:00:10;;;;;;;4.95;2.00;;;11.30;99.90;;;;;;5059994;28;20072;-76
2022/10/16 06:02:35;;;;;;;9.40;2.03;;;11.20;99.90;;;;;;5063186;28;20145;-76
2022/10/16 06:05:01;;;;;;;7.68;2.03;;;11.20;99.90;;;;;;5065699;28;20028;-75
2022/10/16 06:07:27;;;;;;;6.25;2.17;;;11.20;99.90;;;;;;5059395;28;20029;-75
2022/10/16 06:09:53;;;;;;;6.00;2.03;;;11.20;99.90;;;;;;5063060;28;20039;-75
2022/10/16 06:12:19;;;;;;;5.75;1.55;;;11.20;99.90;;;;;;5063820;28;20031;-75
2022/10/16 06:14:46;;;;;;;3.00;1.80;;;11.20;99.90;;;;;;5066773;28;20064;-74
2022/10/16 06:17:15;;;;;;;7.40;1.88;;;11.20;99.90;;;;;;5070402;28;20028;-75
2022/10/16 06:19:41;;;;;;;5.00;2.10;;;11.20;99.90;;;;;;5062257;28;20058;-75
2022/10/16 06:22:07;;;;;;;8.25;1.85;;;11.30;99.90;;;;;;5062913;28;20061;-75
2022/10/16 06:24:32;;;;;;;4.97;1.80;;;11.30;99.90;;;;;;5067253;28;20103;-75
2022/10/16 06:26:58;;;;;;;7.75;2.22;;;11.40;99.90;;;;;;5068516;28;20506;-75
2022/10/16 06:29:23;;;;;;;5.63;2.15;;;11.40;99.90;;;;;;5056647;28;20052;-75
2022/10/16 06:31:49;;;;;;;4.30;2.47;;;11.50;99.90;;;;;;5059918;28;20036;-76
2022/10/16 06:34:15;;;;;;;7.40;2.08;;;11.60;99.90;;;;;;5059993;28;20025;-76
2022/10/16 06:36:43;;;;;;;4.90;2.30;;;11.60;99.90;;;;;;5063308;28;20040;-75
2022/10/16 06:39:08;;;;;;;5.82;1.92;;;11.70;99.90;;;;;;5065531;28;20050;-77
2022/10/16 06:41:34;;;;;;;3.90;1.77;;;11.80;99.90;;;;;;5064596;28;20024;-75
2022/10/16 06:44:00;;;;;;;7.53;2.22;;;11.90;99.90;;;;;;5065165;28;20551;-75
2022/10/16 06:46:26;;;;;;;6.93;2.08;;;12.00;99.90;;;;;;5068699;28;20036;-76
2022/10/16 06:48:53;;;;;;;5.63;2.22;;;12.00;99.90;;;;;;5053913;28;20031;-75
2022/10/16 06:51:25;;;;;;;4.13;2.03;;;12.10;99.90;;;;;;5066023;28;20037;-76
2022/10/16 06:53:53;;;;;;;5.68;1.95;;;12.30;99.90;;;;;;5058895;28;20408;-76
2022/10/16 06:56:25;;;;;;;6.65;1.63;;;12.30;99.90;;;;;;5060987;28;20484;-76
2022/10/16 06:58:52;;;;;;;5.55;1.98;;;12.40;99.90;;;;;;5059372;28;20028;-76
2022/10/16 07:01:19;;;;;;;3.60;1.60;;;12.50;99.90;;;;;;5058260;28;20025;-76
2022/10/16 07:03:46;;;;;;;3.47;1.70;;;12.60;99.90;;;;;;5062375;28;20029;-76
2022/10/16 07:06:14;;;;;;;4.53;1.67;;;12.70;99.90;;;;;;5058600;28;20451;-75
2022/10/16 07:08:41;;;;;;;5.53;2.03;;;12.80;99.90;;;;;;5068875;28;20024;-76
2022/10/16 07:11:10;;;;;;;4.50;1.42;;;12.90;99.90;;;;;;5068256;28;20111;-76
2022/10/16 07:13:38;;;;;;;3.53;1.40;;;13.00;99.90;;;;;;5060194;28;20623;-76
2022/10/16 07:16:08;;;;;;;4.70;1.63;;;13.10;99.90;;;;;;5064305;28;20028;-77
2022/10/16 07:18:34;;;;;;;5.85;1.63;;;13.10;99.90;;;;;;5069284;28;20414;-76
2022/10/16 07:21:08;;;;;;;5.20;1.60;;;13.20;99.90;;;;;;5068056;28;20392;-77
2022/10/16 07:23:34;;;;;;;5.75;1.80;;;13.20;99.90;;;;;;5069786;28;20020;-75
2022/10/16 07:25:59;;;;;;;4.47;1.58;;;13.20;99.90;;;;;;5064009;28;20499;-76
2022/10/16 07:28:25;;;;;;;4.07;1.55;;;13.20;99.90;;;;;;5066160;28;20020;-75
2022/10/16 07:30:51;;;;;;;6.00;1.75;;;13.20;99.90;;;;;;5069919;28;20210;-76
2022/10/16 07:33:16;;;;;;;5.88;1.35;;;13.30;99.90;;;;;;5064405;28;20022;-77
2022/10/16 07:35:52;;;;;;;5.22;1.52;;;13.30;99.90;;;;;;5058547;28;20032;-76
2022/10/16 07:38:18;;;;;;;4.82;1.23;;;13.40;99.90;;;;;;5060250;28;20025;-76
2022/10/16 07:40:44;;;;;;;5.40;1.60;;;13.40;99.90;;;;;;5056390;28;20020;-76
2022/10/16 07:43:10;;;;;;;8.52;1.60;;;13.40;99.90;;;;;;5069468;28;20021;-76
2022/10/16 07:45:46;;;;;;;5.00;1.42;;;13.50;99.90;;;;;;5056662;28;20495;-77
2022/10/16 07:48:12;;;;;;;5.07;1.52;;;13.70;99.90;;;;;;5055253;28;20028;-76
2022/10/16 07:50:38;;;;;;;6.82;1.58;;;13.80;99.90;;;;;;5066144;28;20082;-74
2022/10/16 07:53:04;;;;;;;6.07;1.20;;;13.90;99.90;;;;;;5074677;28;20016;-75
2022/10/16 07:55:30;;;;;;;4.72;1.10;;;13.90;99.90;;;;;;5067008;28;20029;-77
2022/10/16 07:57:55;;;;;;;5.07;1.27;;;13.80;99.90;;;;;;5062126;28;20235;-75
2022/10/16 08:00:23;;;;;;;4.25;1.75;;;13.90;99.90;;;;;;5072731;28;20055;-76
2022/10/16 08:02:49;;;;;;;6.95;1.60;;;14.00;99.90;;;;;;5073089;28;20023;-75
2022/10/16 08:05:15;;;;;;;3.97;1.17;;;14.10;99.90;;;;;;5068408;28;20108;-77
2022/10/16 08:07:40;;;;;;;4.82;1.38;;;14.20;99.90;;;;;;5057916;28;20032;-76
2022/10/16 08:10:09;;;;;;;4.05;1.23;;;14.20;99.90;;;;;;5067014;28;20048;-77
2022/10/16 08:12:35;;;;;;;6.90;1.05;;;14.30;99.90;;;;;;5065485;28;20036;-76
2022/10/16 08:15:00;;;;;;;3.17;1.00;;;14.30;99.90;;;;;;5056770;28;20384;-76
2022/10/16 08:17:26;;;;;;;4.63;1.77;;;14.30;99.90;;;;;;5065801;28;20605;-76
2022/10/16 08:19:55;;;;;;;2.92;0.80;;;14.40;99.90;;;;;;5069396;28;20472;-77
2022/10/16 08:22:20;;;;;;;4.28;1.00;;;14.50;99.90;;;;;;5064259;28;20100;-76
2022/10/16 08:24:46;;;;;;;5.45;0.70;;;14.60;99.90;;;;;;5071309;28;20112;-76
2022/10/16 08:27:11;;;;;;;3.10;0.85;;;14.60;99.90;;;;;;5070628;28;20089;-75
2022/10/16 08:29:38;;;;;;;6.85;0.80;;;14.70;99.90;;;;;;5060686;28;20043;-76
2022/10/16 08:32:04;;;;;;;4.40;0.93;;;14.80;99.90;;;;;;5066207;28;20054;-77
2022/10/16 08:34:30;;;;;;;2.67;1.00;;;14.80;99.90;;;;;;5068695;28;20028;-76
2022/10/16 08:36:55;;;;;;;2.83;0.90;;;14.90;99.90;;;;;;5058691;28;20040;-77
2022/10/16 08:39:28;;;;;;;3.78;1.00;;;14.90;99.90;;;;;;5059370;28;20421;-76
2022/10/16 08:41:54;;;;;;;4.20;0.93;;;14.90;99.90;;;;;;5063895;28;20028;-76
2022/10/16 08:44:43;;;;;;;3.78;0.90;;;15.00;99.90;;;;;;5073671;28;20032;-76
2022/10/16 08:47:25;;;;;;;3.75;1.70;;;15.10;99.90;;;;;;5068375;28;20380;-77
2022/10/16 08:50:01;;;;;;;5.07;1.10;;;15.10;99.90;;;;;;5071461;28;20040;-78
2022/10/16 08:52:35;;;;;;;4.03;0.80;;;15.20;99.90;;;;;;5071367;28;20032;-75
2022/10/16 08:55:01;;;;;;;5.90;0.88;;;15.20;99.90;;;;;;5068632;28;20036;-77
2022/10/16 08:57:27;;;;;;;5.53;0.93;;;15.20;99.90;;;;;;5066523;28;20027;-76
2022/10/16 08:59:59;;;;;;;6.35;0.80;;;15.30;99.90;;;;;;5066800;28;20025;-75
2022/10/16 09:02:33;;;;;;;;;;;15.30;99.90;;;;;;5053312;28;20017;-76
2022/10/16 09:05:37;;;;;;;3.25;0.70;;;15.40;99.90;;;;;;5057548;28;20331;-75
2022/10/16 09:08:28;;;;;;;4.18;1.02;;;15.40;99.90;;;;;;5059228;28;20020;-73
2022/10/16 09:11:10;;;;;;;3.97;0.73;;;15.50;99.90;;;;;;5062583;28;20036;-76
2022/10/16 09:13:43;;;;;;;;;;;15.50;99.90;;;;;;5060163;28;20028;-75
2022/10/16 09:16:21;;;;;;;4.38;0.88;;;15.60;99.90;;;;;;5058260;28;19916;-76
2022/10/16 09:19:10;;;;;;;7.18;0.77;;;15.60;99.90;;;;;;5063408;28;20055;-76
2022/10/16 09:21:40;;;;;;;5.75;0.77;;;15.60;99.90;;;;;;5043223;28;20382;-76
2022/10/16 09:24:16;;;;;;;6.75;0.73;;;15.70;99.90;;;;;;5068167;28;20549;-77
2022/10/16 09:26:42;;;;;;;3.58;1.10;;;15.80;99.90;;;;;;5059687;28;20032;-77
2022/10/16 09:29:16;;;;;;;5.07;1.23;;;15.80;99.90;;;;;;5061112;28;20039;-77
2022/10/16 09:31:44;;;;;;;5.10;0.80;;;16.00;99.90;;;;;;5070703;28;20040;-76
2022/10/16 09:34:30;;;;;;;2.35;0.88;;;16.00;99.90;;;;;;5062281;28;20025;-76
2022/10/16 09:37:12;;;;;;;3.60;1.13;;;16.10;99.90;;;;;;5059991;28;20086;-76
2022/10/16 09:39:54;;;;;;;6.95;0.85;;;16.20;99.90;;;;;;5059644;28;20116;-76
2022/10/16 09:42:24;;;;;;;7.05;0.65;;;16.20;99.90;;;;;;5059863;28;20504;-76
2022/10/16 09:44:51;;;;;;;6.88;0.73;;;16.20;99.90;;;;;;5052393;28;20036;-77
2022/10/16 09:47:24;;;;;;;7.05;0.82;;;16.20;99.90;;;;;;5059059;28;20036;-76
2022/10/16 09:50:05;;;;;;;;;;;16.30;99.90;;;;;;5062682;28;20392;-76
2022/10/16 09:52:32;;;;;;;5.10;0.60;;;16.30;99.90;;;;;;5058054;28;19912;-76
2022/10/16 09:55:14;;;;;;;5.68;0.70;;;16.30;99.90;;;;;;5063099;28;20480;-77
2022/10/16 09:57:50;;;;;;;;;;;16.40;99.90;;;;;;5059900;28;20094;-76
2022/10/16 10:00:20;;;;;;;5.90;1.35;;;16.40;99.90;;;;;;5062697;28;19999;-76
2022/10/16 10:02:46;;;;;;;8.43;0.70;;;16.40;99.90;;;;;;5060646;28;20029;-75
2022/10/16 10:05:24;;;;;;;6.63;0.93;;;16.50;99.90;;;;;;5052233;28;20033;-75
2022/10/16 10:07:59;;;;;;;8.32;0.80;;;16.50;99.90;;;;;;5057815;28;20078;-74
2022/10/16 10:10:30;;;;;;;7.60;0.73;;;16.60;99.90;;;;;;5060699;28;20043;-75
2022/10/16 10:12:56;;;;;;;7.97;0.52;;;16.60;99.90;;;;;;5060211;28;20025;-75
2022/10/16 10:15:27;;;;;;;13.95;0.80;;;16.60;99.90;;;;;;5060650;28;20032;-77
2022/10/16 10:17:55;;;;;;;7.40;0.70;;;16.70;99.90;;;;;;5055308;28;20029;-77
2022/10/16 10:20:34;;;;;;;7.05;0.50;;;16.80;99.90;;;;;;5061107;28;20040;-76
2022/10/16 10:23:00;;;;;;;5.25;0.90;;;16.90;99.90;;;;;;5064818;28;20071;-76
2022/10/16 10:25:44;;;;;;;8.48;1.13;;;16.90;99.90;;;;;;5059019;28;20020;-77
2022/10/16 10:29:04;;;;;;;10.93;0.85;;;17.00;99.90;;;;;;5059666;28;20028;-75
2022/10/16 10:31:53;;;;;;;7.85;1.30;;;17.10;99.90;;;;;;5061345;28;20044;-75
2022/10/16 10:34:53;;;;;;;6.15;1.13;;;17.10;99.90;;;;;;5054627;28;20040;-75
2022/10/16 10:37:36;;;;;;;12.48;0.70;;;17.20;99.90;;;;;;5059583;28;20033;-75
2022/10/16 10:40:22;;;;;;;7.05;0.50;;;17.30;99.90;;;;;;5052761;28;20031;-76
2022/10/16 10:43:18;;;;;;;9.13;0.68;;;17.30;99.90;;;;;;5059223;28;20639;-76
2022/10/16 10:45:47;;;;;;;5.05;0.65;;;17.30;99.90;;;;;;5057216;28;20031;-77
2022/10/16 10:48:36;;;;;;;8.07;0.57;;;17.40;99.90;;;;;;5055859;28;20519;-76
2022/10/16 10:51:16;;;;;;;8.07;0.93;;;17.40;99.90;;;;;;5058592;28;20412;-74
2022/10/16 10:53:59;;;;;;;8.30;0.60;;;17.40;99.90;;;;;;5059349;28;20090;-76
2022/10/16 10:56:53;;;;;;;8.60;0.70;;;17.50;99.90;;;;;;5057423;28;20583;-75
2022/10/16 10:59:33;;;;;;;13.63;1.60;;;17.40;99.90;;;;;;5065325;28;20021;-76
2022/10/16 11:02:19;;;;;;;9.27;0.60;;;17.40;99.90;;;;;;5059174;28;20025;-76
2022/10/16 11:05:16;;;;;;;11.05;0.80;;;17.30;99.90;;;;;;5058203;28;20024;-76
2022/10/16 11:08:17;;;;;;;4.70;0.50;;;17.30;99.90;;;;;;5065034;28;20032;-76
2022/10/16 11:10:59;;;;;;;8.00;0.60;;;17.30;99.90;;;;;;5053252;28;20059;-76
2022/10/16 11:13:42;;;;;;;8.68;0.57;;;17.20;99.90;;;;;;5063641;28;20488;-76
2022/10/16 11:16:29;;;;;;;4.63;0.30;;;17.30;99.90;;;;;;5059509;28;20055;-75
2022/10/16 11:19:28;;;;;;;5.93;0.50;;;17.50;99.90;;;;;;5058337;28;20057;-75
2022/10/16 11:22:09;;;;;;;9.15;0.77;;;17.40;99.90;;;;;;5055913;28;20021;-75
2022/10/16 11:24:40;;;;;;;8.77;1.02;;;17.30;99.90;;;;;;5051217;28;20031;-75
2022/10/16 11:27:11;;;;;;;9.35;0.47;;;17.20;99.90;;;;;;5059667;28;20048;-75
2022/10/16 11:29:50;;;;;;;11.43;0.85;;;17.30;99.90;;;;;;5058991;28;20043;-74
2022/10/16 11:33:04;;;;;;;6.47;0.60;;;17.40;99.90;;;;;;5062638;28;20060;-75
2022/10/16 11:36:02;;;;;;;11.45;0.75;;;17.50;99.90;;;;;;5034052;28;20075;-75
2022/10/16 11:39:12;;;;;;;8.43;0.93;;;17.70;99.90;;;;;;5035111;28;20083;-75
2022/10/16 11:41:47;;;;;;;7.55;0.52;;;17.80;99.90;;;;;;5060247;28;20107;-75
2022/10/16 11:44:53;;;;;;;7.75;0.80;;;17.80;99.90;;;;;;5063399;28;20078;-75
2022/10/16 11:47:34;;;;;;;11.73;0.93;;;17.90;99.90;;;;;;5070057;28;20137;-75
2022/10/16 11:50:31;;;;;;;4.38;0.50;;;17.90;99.90;;;;;;5064436;28;20036;-75
2022/10/16 11:53:24;;;;;;;10.07;0.90;;;18.00;99.90;;;;;;5058340;28;20441;-75
2022/10/16 11:55:50;;;;;;;10.45;0.50;;;18.10;99.90;;;;;;5068854;28;20030;-75
2022/10/16 11:58:38;;;;;;;8.73;0.50;;;18.10;99.90;;;;;;5050944;28;20132;-75
2022/10/16 12:01:45;;;;;;;7.25;0.82;;;18.20;99.90;;;;;;5056558;28;20455;-74
2022/10/16 12:04:45;;;;;;;5.13;0.70;;;18.30;99.90;;;;;;5056418;28;20029;-75
2022/10/16 12:07:23;;;;;;;9.88;1.17;;;18.20;99.90;;;;;;5055083;28;20033;-75
2022/10/16 12:09:48;;;;;;;6.32;0.50;;;18.20;99.90;;;;;;5051611;28;20064;-75
2022/10/16 12:12:37;;;;;;;9.70;0.70;;;18.20;99.90;;;;;;5060470;28;20056;-75
2022/10/16 12:15:25;;;;;;;6.72;0.45;;;18.30;99.90;;;;;;5059757;28;20059;-75
2022/10/16 12:17:52;;;;;;;6.80;0.50;;;18.40;99.90;;;;;;5064678;28;20123;-75
2022/10/16 12:20:19;;;;;;;7.78;0.60;;;18.40;99.90;;;;;;5063853;28;20431;-75
2022/10/16 12:22:51;;;;;;;7.47;0.60;;;18.30;99.90;;;;;;5053634;28;20476;-75
2022/10/16 12:25:37;;;;;;;6.45;0.60;;;18.10;99.90;;;;;;5059880;28;20090;-75
2022/10/16 12:28:21;;;;;;;6.57;0.70;;;18.10;99.90;;;;;;5069870;28;20564;-76
2022/10/16 12:31:05;;;;;;;7.88;0.50;;;18.00;99.90;;;;;;5051683;28;20404;-75
2022/10/16 12:33:36;;;;;;;5.07;0.60;;;18.10;99.90;;;;;;5069246;28;20522;-75
2022/10/16 12:36:06;;;;;;;8.43;0.53;;;18.10;99.90;;;;;;5069182;28;20037;-75
2022/10/16 12:38:47;;;;;;;9.40;0.68;;;18.00;99.90;;;;;;5065814;28;20294;-75
2022/10/16 12:41:23;;;;;;;8.15;0.47;;;18.00;99.90;;;;;;5057475;28;20028;-75
2022/10/16 12:43:48;;;;;;;3.97;0.45;;;17.80;99.90;;;;;;5054395;28;20099;-75
2022/10/16 12:46:36;;;;;;;8.40;0.52;;;17.70;99.90;;;;;;5064935;28;20029;-75
2022/10/16 12:49:07;;;;;;;5.57;0.85;;;17.70;99.90;;;;;;5063700;28;20024;-75
2022/10/16 12:51:32;;;;;;;7.38;0.82;;;17.60;99.90;;;;;;5073114;28;20075;-75
2022/10/16 12:54:20;;;;;;;12.30;0.75;;;17.60;99.90;;;;;;5071940;28;20049;-75
2022/10/16 12:57:23;;;;;;;5.15;0.40;;;17.60;99.90;;;;;;5054996;28;20040;-75
2022/10/16 13:00:25;;;;;;;7.05;0.50;;;17.60;99.90;;;;;;5068655;28;20120;-74
2022/10/16 13:03:27;;;;;;;3.97;0.50;;;17.60;99.90;;;;;;5069634;28;20157;-74
2022/10/16 13:06:07;;;;;;;8.90;0.50;;;17.50;99.90;;;;;;5072658;28;20503;-75
2022/10/16 13:08:35;;;;;;;11.75;0.80;;;17.60;99.90;;;;;;5065933;28;20046;-75
2022/10/16 13:11:31;;;;;;;6.28;0.50;;;17.70;99.90;;;;;;5064819;28;20036;-75
2022/10/16 13:14:26;;;;;;;5.72;0.65;;;18.00;99.90;;;;;;5069672;28;20066;-75